BIENTÔT MET'MAP
version 2.0 !

Prévue avant fin octobre,
la nouvelle version sera
plus belle, plus complète
et hébergée sur un serveur
3 fois plus puissant...
et toujours gratuite !


Pas compatible ?
Essayez la version Mobile !

SE CONNECTER : | S'inscrire | Disclaimer | Découvrir Orbifly |
Code OACI :

TAF - LTFC Suleyman Demirel - 01 Jun 2020 22:11 UTC - Data Source NOAA   


- Altitude de l'aérodrome : 2835 ft
- Code IATA : ISE
- Pas de NOTAMs connus.


LTFC - Suleyman Demirel

Dernier METAR connu : 2015/08/11 07:50 LTFC 110750Z 19005KT 140V230 9999 SCT035 25/19 Q1014
TAF TAF LTFC
Valide du 01 à 18h jusqu'au 02 à 18h UTC


011640Z 0118/0218 VRB02KT 9999 -SHRA BKN025
TEMPO 0118/0120 -TSRA FEW020CB BKN025
BECMG 0205/0208 34012KT
PROB40 0213/0217 -TSRA FEW020CB BKN025

Source NOAA


MET'MAP, la Météo Aéronautique d'un coup d'oeil ! - Copyright ORBIFLY Décembre 2007

Développement & Programmation : Alexandra Zaïnal
Co-Développement : Marc-Olivier Méhu
Soutien technique & logistique : Manuel Goepfert
Conception & Financement : Baudouin d'Aumeries